createdAt,value
2023-02-09T00:00:05.667Z,861.19
2023-02-09T00:01:05.634Z,861.18
2023-02-09T00:02:05.716Z,861.18
2023-02-09T00:03:05.617Z,861.15
2023-02-09T00:04:05.621Z,861.21
2023-02-09T00:05:05.596Z,861.20
2023-02-09T00:06:05.584Z,861.16
2023-02-09T00:07:05.575Z,861.22
2023-02-09T00:08:05.679Z,861.22
2023-02-09T00:09:05.555Z,861.22
2023-02-09T00:10:05.559Z,861.21
2023-02-09T00:11:05.534Z,861.23
2023-02-09T00:12:05.520Z,861.19
2023-02-09T00:13:05.514Z,861.19
2023-02-09T00:14:05.509Z,861.20
2023-02-09T00:15:05.499Z,861.24
2023-02-09T00:16:05.555Z,861.21
2023-02-09T00:17:05.470Z,861.18
2023-02-09T00:18:05.466Z,861.24
2023-02-09T00:19:05.461Z,861.22
2023-02-09T00:20:05.449Z,861.25
2023-02-09T00:21:05.436Z,861.20
2023-02-09T00:22:05.431Z,861.22
2023-02-09T00:23:05.424Z,861.25
2023-02-09T00:24:05.417Z,861.25
2023-02-09T00:25:05.399Z,861.29
2023-02-09T00:26:05.374Z,861.27
2023-02-09T00:27:05.384Z,861.28
2023-02-09T00:28:05.388Z,861.29
2023-02-09T00:29:05.346Z,861.23
2023-02-09T00:30:05.334Z,861.23
2023-02-09T00:31:05.395Z,861.25
2023-02-09T00:32:05.427Z,861.24
2023-02-09T00:33:05.318Z,861.28
2023-02-09T00:34:05.313Z,861.27
2023-02-09T00:35:05.281Z,861.25
2023-02-09T00:36:05.284Z,861.23
2023-02-09T00:37:05.267Z,861.29
2023-02-09T00:38:05.261Z,861.26
2023-02-09T00:39:05.254Z,861.25
2023-02-09T00:40:05.257Z,861.32
2023-02-09T00:41:05.219Z,861.32
2023-02-09T00:42:05.231Z,861.28
2023-02-09T00:43:05.197Z,861.26
2023-02-09T00:44:05.185Z,861.25
2023-02-09T00:45:05.177Z,861.25
2023-02-09T00:46:05.318Z,861.26
2023-02-09T00:47:05.192Z,861.27
2023-02-09T00:48:05.148Z,861.25
2023-02-09T00:49:05.153Z,861.28
2023-02-09T00:50:05.243Z,861.29
2023-02-09T00:51:05.113Z,861.30
2023-02-09T00:52:05.122Z,861.33
2023-02-09T00:53:05.108Z,861.29
2023-02-09T00:54:05.107Z,861.32
2023-02-09T00:55:05.078Z,861.36
2023-02-09T00:56:05.085Z,861.32
2023-02-09T00:57:05.107Z,861.34
2023-02-09T00:58:05.060Z,861.34
2023-02-09T00:59:05.044Z,861.35
2023-02-09T01:00:05.023Z,861.36
2023-02-09T01:01:05.102Z,861.39
2023-02-09T01:02:05.009Z,861.40
2023-02-09T01:03:04.990Z,861.44
2023-02-09T01:04:05.103Z,861.37
2023-02-09T01:05:05.024Z,861.35
2023-02-09T01:06:04.956Z,861.41
2023-02-09T01:07:04.946Z,861.42
2023-02-09T01:08:04.937Z,861.38
2023-02-09T01:09:04.926Z,861.39
2023-02-09T01:10:04.953Z,861.35
2023-02-09T01:11:04.922Z,861.35
2023-02-09T01:12:04.911Z,861.34
2023-02-09T01:13:04.886Z,861.36
2023-02-09T01:14:04.875Z,861.35
2023-02-09T01:15:04.866Z,861.34
2023-02-09T01:16:04.877Z,861.34
2023-02-09T01:17:05.053Z,861.34
2023-02-09T01:18:04.827Z,861.32
2023-02-09T01:19:04.824Z,861.29
2023-02-09T01:20:04.807Z,861.30
2023-02-09T01:21:04.887Z,861.31
2023-02-09T01:22:04.806Z,861.24
2023-02-09T01:23:04.779Z,861.28
2023-02-09T01:24:04.767Z,861.21
2023-02-09T01:25:04.760Z,861.21
2023-02-09T01:26:04.749Z,861.20
2023-02-09T01:27:04.759Z,861.19
2023-02-09T01:28:04.794Z,861.19
2023-02-09T01:29:04.731Z,861.24
2023-02-09T01:30:04.710Z,861.20
2023-02-09T01:31:04.849Z,861.16
2023-02-09T01:32:04.777Z,861.18
2023-02-09T01:33:04.689Z,861.16
2023-02-09T01:34:04.677Z,861.16
2023-02-09T01:35:04.653Z,861.15
2023-02-09T01:36:04.643Z,861.14
2023-02-09T01:37:04.635Z,861.18
2023-02-09T01:38:04.622Z,861.15
2023-02-09T01:39:04.653Z,861.18
2023-02-09T01:40:04.615Z,861.13
2023-02-09T01:41:04.591Z,861.13
2023-02-09T01:42:04.579Z,861.12
2023-02-09T01:43:04.593Z,861.13
2023-02-09T01:44:04.580Z,861.10
2023-02-09T01:45:04.565Z,861.10
2023-02-09T01:46:04.639Z,861.10
2023-02-09T01:47:04.532Z,861.11
2023-02-09T01:48:04.518Z,861.08
2023-02-09T01:49:04.526Z,861.08
2023-02-09T01:50:04.505Z,861.04
2023-02-09T01:51:04.531Z,861.00
2023-02-09T01:52:04.478Z,861.00
2023-02-09T01:53:04.472Z,860.98
2023-02-09T01:54:04.457Z,860.96
2023-02-09T01:55:04.462Z,861.00
2023-02-09T01:56:04.451Z,860.98
2023-02-09T01:57:04.440Z,861.01
2023-02-09T01:58:04.420Z,860.97
2023-02-09T01:59:04.409Z,860.96
2023-02-09T02:00:04.412Z,860.95
2023-02-09T02:01:04.472Z,860.96
2023-02-09T02:02:04.378Z,860.99
2023-02-09T02:03:04.416Z,860.91
2023-02-09T02:04:04.358Z,860.94
2023-02-09T02:05:04.350Z,860.98
2023-02-09T02:06:04.350Z,861.00
2023-02-09T02:07:04.330Z,861.01
2023-02-09T02:08:04.314Z,860.97
2023-02-09T02:09:04.329Z,860.97
2023-02-09T02:10:04.296Z,860.94
2023-02-09T02:11:04.298Z,860.93
2023-02-09T02:12:04.278Z,860.91
2023-02-09T02:13:04.262Z,860.89
2023-02-09T02:14:04.248Z,860.84
2023-02-09T02:15:04.250Z,860.82
2023-02-09T02:16:04.464Z,860.82
2023-02-09T02:17:04.221Z,860.88
2023-02-09T02:18:04.217Z,860.81
2023-02-09T02:19:04.197Z,860.82
2023-02-09T02:20:04.183Z,860.80
2023-02-09T02:21:04.188Z,860.80
2023-02-09T02:22:04.163Z,860.82
2023-02-09T02:23:04.165Z,860.77
2023-02-09T02:24:04.140Z,860.77
2023-02-09T02:25:04.133Z,860.74
2023-02-09T02:26:06.152Z,860.75
2023-02-09T02:27:04.140Z,860.73
2023-02-09T02:28:04.208Z,860.71
2023-02-09T02:29:04.088Z,860.74
2023-02-09T02:30:04.089Z,860.72
2023-02-09T02:31:04.224Z,860.73
2023-02-09T02:32:04.092Z,860.74
2023-02-09T02:33:04.070Z,860.68
2023-02-09T02:34:04.048Z,860.72
2023-02-09T02:35:04.027Z,860.65
2023-02-09T02:36:04.017Z,860.68
2023-02-09T02:37:04.007Z,860.68
2023-02-09T02:38:03.999Z,860.69
2023-02-09T02:39:04.000Z,860.63
2023-02-09T02:40:04.027Z,860.65
2023-02-09T02:41:04.002Z,860.66
2023-02-09T02:42:03.955Z,860.65
2023-02-09T02:43:03.943Z,860.62
2023-02-09T02:44:03.940Z,860.63
2023-02-09T02:45:03.945Z,860.69
2023-02-09T02:46:03.943Z,860.67
2023-02-09T02:47:03.915Z,860.66
2023-02-09T02:48:03.922Z,860.65
2023-02-09T02:49:03.888Z,860.65
2023-02-09T02:50:03.878Z,860.63
2023-02-09T02:51:03.913Z,860.67
2023-02-09T02:52:03.861Z,860.61
2023-02-09T02:53:03.854Z,860.62
2023-02-09T02:54:03.842Z,860.56
2023-02-09T02:55:03.824Z,860.59
2023-02-09T02:56:03.821Z,860.58
2023-02-09T02:57:03.834Z,860.58
2023-02-09T02:58:03.795Z,860.55
2023-02-09T02:59:03.787Z,860.55
2023-02-09T03:00:03.776Z,860.57
2023-02-09T03:01:03.769Z,860.55
2023-02-09T03:02:03.754Z,860.51
2023-02-09T03:03:03.768Z,860.54
2023-02-09T03:04:03.768Z,860.53
2023-02-09T03:05:03.786Z,860.52
2023-02-09T03:06:03.732Z,860.52
2023-02-09T03:07:03.706Z,860.52
2023-02-09T03:08:03.726Z,860.50
2023-02-09T03:09:03.717Z,860.50
2023-02-09T03:10:03.746Z,860.47
2023-02-09T03:11:03.675Z,860.52
2023-02-09T03:12:03.685Z,860.49
2023-02-09T03:13:03.641Z,860.53
2023-02-09T03:14:03.649Z,860.53
2023-02-09T03:15:03.651Z,860.50
2023-02-09T03:16:03.658Z,860.48
2023-02-09T03:17:03.605Z,860.52
2023-02-09T03:18:03.592Z,860.49
2023-02-09T03:19:03.579Z,860.46
2023-02-09T03:20:03.609Z,860.47
2023-02-09T03:21:03.561Z,860.45
2023-02-09T03:22:03.549Z,860.43
2023-02-09T03:23:03.536Z,860.42
2023-02-09T03:24:03.543Z,860.41
2023-02-09T03:25:03.540Z,860.35
2023-02-09T03:26:03.529Z,860.41
2023-02-09T03:27:03.494Z,860.36
2023-02-09T03:28:03.517Z,860.39
2023-02-09T03:29:03.472Z,860.38
2023-02-09T03:30:03.467Z,860.36
2023-02-09T03:31:03.591Z,860.39
2023-02-09T03:32:03.466Z,860.38
2023-02-09T03:33:03.461Z,860.35
2023-02-09T03:34:03.430Z,860.32
2023-02-09T03:35:03.411Z,860.32
2023-02-09T03:36:03.431Z,860.33
2023-02-09T03:37:03.404Z,860.31
2023-02-09T03:38:03.399Z,860.38
2023-02-09T03:39:03.379Z,860.39
2023-02-09T03:40:03.362Z,860.33
2023-02-09T03:41:03.360Z,860.37
2023-02-09T03:42:03.358Z,860.27
2023-02-09T03:43:03.342Z,860.32
2023-02-09T03:44:03.334Z,860.30
2023-02-09T03:45:03.312Z,860.28
2023-02-09T03:46:03.302Z,860.26
2023-02-09T03:47:03.289Z,860.28
2023-02-09T03:48:03.298Z,860.23
2023-02-09T03:49:03.273Z,860.26
2023-02-09T03:50:03.274Z,860.28
2023-02-09T03:51:03.244Z,860.25
2023-02-09T03:52:03.264Z,860.24
2023-02-09T03:53:03.225Z,860.22
2023-02-09T03:54:03.232Z,860.25
2023-02-09T03:55:03.236Z,860.24
2023-02-09T03:56:03.215Z,860.29
2023-02-09T03:57:03.186Z,860.28
2023-02-09T03:58:03.177Z,860.28
2023-02-09T03:59:03.163Z,860.35
2023-02-09T04:00:03.152Z,860.33
2023-02-09T04:01:03.209Z,860.36
2023-02-09T04:02:03.241Z,860.37
2023-02-09T04:03:03.124Z,860.35
2023-02-09T04:04:03.120Z,860.30
2023-02-09T04:05:05.462Z,860.31
2023-02-09T04:06:03.087Z,860.34
2023-02-09T04:07:03.184Z,860.35
2023-02-09T04:08:03.102Z,860.33
2023-02-09T04:09:03.081Z,860.35
2023-02-09T04:10:03.062Z,860.38
2023-02-09T04:11:03.069Z,860.38
2023-02-09T04:12:03.038Z,860.43
2023-02-09T04:13:03.023Z,860.40
2023-02-09T04:14:03.032Z,860.37
2023-02-09T04:15:03.004Z,860.43
2023-02-09T04:16:03.083Z,860.44
2023-02-09T04:17:02.981Z,860.42
2023-02-09T04:18:02.964Z,860.45
2023-02-09T04:19:02.951Z,860.45
2023-02-09T04:20:02.960Z,860.46
2023-02-09T04:21:02.929Z,860.47
2023-02-09T04:22:02.933Z,860.40
2023-02-09T04:23:02.913Z,860.41
2023-02-09T04:24:02.924Z,860.41
2023-02-09T04:25:02.890Z,860.40
2023-02-09T04:26:02.895Z,860.38
2023-02-09T04:27:02.882Z,860.40
2023-02-09T04:28:02.930Z,860.38
2023-02-09T04:29:02.882Z,860.42
2023-02-09T04:30:02.903Z,860.42
2023-02-09T04:31:02.963Z,860.39
2023-02-09T04:32:02.924Z,860.38
2023-02-09T04:33:02.808Z,860.41
2023-02-09T04:34:02.806Z,860.41
2023-02-09T04:35:02.794Z,860.39
2023-02-09T04:36:02.784Z,860.41
2023-02-09T04:37:02.780Z,860.37
2023-02-09T04:38:02.786Z,860.35
2023-02-09T04:39:02.791Z,860.38
2023-02-09T04:40:02.764Z,860.41
2023-02-09T04:41:02.735Z,860.40
2023-02-09T04:42:02.735Z,860.38
2023-02-09T04:43:02.717Z,860.39
2023-02-09T04:44:02.711Z,860.37
2023-02-09T04:45:02.686Z,860.37
2023-02-09T04:46:02.713Z,860.34
2023-02-09T04:47:02.668Z,860.41
2023-02-09T04:48:02.667Z,860.39
2023-02-09T04:49:02.643Z,860.35
2023-02-09T04:50:02.670Z,860.35
2023-02-09T04:51:02.628Z,860.40
2023-02-09T04:52:02.620Z,860.41
2023-02-09T04:53:02.604Z,860.38
2023-02-09T04:54:02.599Z,860.42
2023-02-09T04:55:02.588Z,860.39
2023-02-09T04:56:02.613Z,860.40
2023-02-09T04:57:02.563Z,860.40
2023-02-09T04:58:02.559Z,860.42
2023-02-09T04:59:02.556Z,860.42
2023-02-09T05:00:02.582Z,860.42
2023-02-09T05:01:02.570Z,860.44
2023-02-09T05:02:02.528Z,860.45
2023-02-09T05:03:02.500Z,860.46
2023-02-09T05:04:02.508Z,860.43
2023-02-09T05:05:02.491Z,860.42
2023-02-09T05:06:02.473Z,860.44
2023-02-09T05:07:02.458Z,860.45
2023-02-09T05:08:02.480Z,860.45
2023-02-09T05:09:02.438Z,860.48
2023-02-09T05:10:02.431Z,860.43
2023-02-09T05:11:02.420Z,860.42
2023-02-09T05:12:02.427Z,860.45
2023-02-09T05:13:02.398Z,860.46
2023-02-09T05:14:02.411Z,860.46
2023-02-09T05:15:02.378Z,860.49
2023-02-09T05:16:02.411Z,860.49
2023-02-09T05:17:02.472Z,860.48
2023-02-09T05:18:02.362Z,860.53
2023-02-09T05:19:02.341Z,860.51
2023-02-09T05:20:02.349Z,860.51
2023-02-09T05:21:02.324Z,860.47
2023-02-09T05:22:02.327Z,860.53
2023-02-09T05:23:02.293Z,860.54
2023-02-09T05:24:02.285Z,860.55
2023-02-09T05:25:02.275Z,860.56
2023-02-09T05:26:02.301Z,860.52
2023-02-09T05:27:02.262Z,860.55
2023-02-09T05:28:02.306Z,860.56
2023-02-09T05:29:02.231Z,860.54
2023-02-09T05:30:02.239Z,860.56
2023-02-09T05:31:02.273Z,860.53
2023-02-09T05:32:02.282Z,860.59
2023-02-09T05:33:02.190Z,860.57
2023-02-09T05:34:02.187Z,860.58
2023-02-09T05:35:02.168Z,860.59
2023-02-09T05:36:02.173Z,860.59
2023-02-09T05:37:02.149Z,860.57
2023-02-09T05:38:02.137Z,860.61
2023-02-09T05:39:02.145Z,860.60
2023-02-09T05:40:02.168Z,860.63
2023-02-09T05:41:02.136Z,860.62
2023-02-09T05:42:02.120Z,860.65
2023-02-09T05:43:02.089Z,860.67
2023-02-09T05:44:02.124Z,860.68
2023-02-09T05:45:02.072Z,860.70
2023-02-09T05:46:02.177Z,860.68
2023-02-09T05:47:02.044Z,860.67
2023-02-09T05:48:02.061Z,860.76
2023-02-09T05:49:02.025Z,860.75
2023-02-09T05:50:02.045Z,860.77
2023-02-09T05:51:02.009Z,860.80
2023-02-09T05:52:02.016Z,860.79
2023-02-09T05:53:01.988Z,860.80
2023-02-09T05:54:01.973Z,860.83
2023-02-09T05:55:01.976Z,860.84
2023-02-09T05:56:01.961Z,860.84
2023-02-09T05:57:01.957Z,860.83
2023-02-09T05:58:01.949Z,860.89
2023-02-09T05:59:04.167Z,860.83
2023-02-09T06:00:01.933Z,860.81
2023-02-09T06:01:01.909Z,860.85
2023-02-09T06:02:01.911Z,860.89
2023-02-09T06:03:01.881Z,860.80
2023-02-09T06:04:01.869Z,860.86
2023-02-09T06:05:01.873Z,860.83
2023-02-09T06:06:01.848Z,860.92
2023-02-09T06:07:01.837Z,860.86
2023-02-09T06:08:01.841Z,860.90
2023-02-09T06:09:01.813Z,860.95
2023-02-09T06:10:01.850Z,860.96
2023-02-09T06:11:01.818Z,860.93
2023-02-09T06:12:01.791Z,860.99
2023-02-09T06:13:01.773Z,860.99
2023-02-09T06:14:01.763Z,861.01
2023-02-09T06:15:01.750Z,861.00
2023-02-09T06:16:01.799Z,861.03
2023-02-09T06:17:01.742Z,861.04
2023-02-09T06:18:01.723Z,861.05
2023-02-09T06:19:01.708Z,861.05
2023-02-09T06:20:01.834Z,861.12
2023-02-09T06:21:01.686Z,861.10
2023-02-09T06:22:01.708Z,861.10
2023-02-09T06:23:01.666Z,861.12
2023-02-09T06:24:01.659Z,861.20
2023-02-09T06:25:01.644Z,861.17
2023-02-09T06:26:01.665Z,861.20
2023-02-09T06:27:01.626Z,861.16
2023-02-09T06:28:01.640Z,861.15
2023-02-09T06:29:01.614Z,861.21
2023-02-09T06:30:01.596Z,861.19
2023-02-09T06:31:01.682Z,861.19
2023-02-09T06:32:01.786Z,861.21
2023-02-09T06:33:01.597Z,861.22
2023-02-09T06:34:01.572Z,861.26
2023-02-09T06:35:01.572Z,861.23
2023-02-09T06:36:01.591Z,861.26
2023-02-09T06:37:01.570Z,861.23
2023-02-09T06:38:01.559Z,861.29
2023-02-09T06:39:01.542Z,861.21
2023-02-09T06:40:01.542Z,861.29
2023-02-09T06:41:01.498Z,861.31
2023-02-09T06:42:01.479Z,861.31
2023-02-09T06:43:01.468Z,861.27
2023-02-09T06:44:01.471Z,861.29
2023-02-09T06:45:01.458Z,861.28
2023-02-09T06:46:01.485Z,861.33
2023-02-09T06:47:01.441Z,861.31
2023-02-09T06:48:01.434Z,861.26
2023-02-09T06:49:01.404Z,861.33
2023-02-09T06:50:01.401Z,861.34
2023-02-09T06:51:01.397Z,861.32
2023-02-09T06:52:01.383Z,861.30
2023-02-09T06:53:01.363Z,861.30
2023-02-09T06:54:01.350Z,861.32
2023-02-09T06:55:01.343Z,861.33
2023-02-09T06:56:01.351Z,861.29
2023-02-09T06:57:01.322Z,861.27
2023-02-09T06:58:01.331Z,861.27
2023-02-09T06:59:01.303Z,861.24
2023-02-09T07:00:01.292Z,861.28
2023-02-09T07:01:01.302Z,861.30
2023-02-09T07:02:01.356Z,861.28
2023-02-09T07:03:01.418Z,861.25
2023-02-09T07:04:01.271Z,861.30
2023-02-09T07:05:01.251Z,861.28
2023-02-09T07:06:01.245Z,861.29
2023-02-09T07:07:01.234Z,861.29
2023-02-09T07:08:01.210Z,861.30
2023-02-09T07:09:01.197Z,861.36
2023-02-09T07:10:01.223Z,861.32
2023-02-09T07:11:01.178Z,861.31
2023-02-09T07:12:01.173Z,861.34
2023-02-09T07:13:01.165Z,861.34
2023-02-09T07:14:01.149Z,861.33
2023-02-09T07:15:01.177Z,861.36
2023-02-09T07:16:01.165Z,861.39
2023-02-09T07:17:01.124Z,861.37
2023-02-09T07:18:01.119Z,861.35
2023-02-09T07:19:01.115Z,861.39
2023-02-09T07:20:01.104Z,861.38
2023-02-09T07:21:01.084Z,861.36
2023-02-09T07:22:01.077Z,861.40
2023-02-09T07:23:01.052Z,861.42
2023-02-09T07:24:01.050Z,861.41
2023-02-09T07:25:01.044Z,861.46
2023-02-09T07:26:01.024Z,861.43
2023-02-09T07:27:01.025Z,861.42
2023-02-09T07:28:01.072Z,861.47
2023-02-09T07:29:01.001Z,861.46
2023-02-09T07:30:01.438Z,861.46
2023-02-09T07:31:01.091Z,861.47
2023-02-09T07:32:01.038Z,861.54
2023-02-09T07:33:00.948Z,861.50
2023-02-09T07:34:00.967Z,861.43
2023-02-09T07:35:00.943Z,861.46
2023-02-09T07:36:00.949Z,861.50
2023-02-09T07:37:00.914Z,861.52
2023-02-09T07:38:00.902Z,861.51
2023-02-09T07:39:00.893Z,861.53
2023-02-09T07:40:00.892Z,861.45
2023-02-09T07:41:00.864Z,861.51
2023-02-09T07:42:00.868Z,861.56
2023-02-09T07:43:00.846Z,861.51
2023-02-09T07:44:00.831Z,861.51
2023-02-09T07:45:00.834Z,861.52
2023-02-09T07:46:00.846Z,861.52
2023-02-09T07:47:00.829Z,861.53
2023-02-09T07:48:00.788Z,861.48
2023-02-09T07:49:01.524Z,861.44
2023-02-09T07:50:00.801Z,861.46
2023-02-09T07:51:00.839Z,861.41
2023-02-09T07:52:00.775Z,861.41
2023-02-09T07:53:00.739Z,861.43
2023-02-09T07:54:00.724Z,861.43
2023-02-09T07:55:00.729Z,861.41
2023-02-09T07:56:00.711Z,861.48
2023-02-09T07:57:00.709Z,861.44
2023-02-09T07:58:00.711Z,861.42
2023-02-09T07:59:00.675Z,861.43
2023-02-09T08:00:00.666Z,861.42
2023-02-09T08:01:00.670Z,861.47
2023-02-09T08:02:00.712Z,861.46
2023-02-09T08:03:00.646Z,861.50
2023-02-09T08:04:00.644Z,861.48
2023-02-09T08:05:00.716Z,861.50
2023-02-09T08:06:00.601Z,861.51
2023-02-09T08:07:00.611Z,861.49
2023-02-09T08:08:00.616Z,861.54
2023-02-09T08:09:00.572Z,861.52
2023-02-09T08:10:00.568Z,861.51
2023-02-09T08:11:00.561Z,861.49
2023-02-09T08:12:00.641Z,861.54
2023-02-09T08:13:00.635Z,861.60
2023-02-09T08:14:00.529Z,861.54
2023-02-09T08:15:00.510Z,861.59
2023-02-09T08:16:00.571Z,861.56
2023-02-09T08:17:00.498Z,861.49
2023-02-09T08:18:00.475Z,861.49
2023-02-09T08:19:00.478Z,861.50
2023-02-09T08:20:00.466Z,861.50
2023-02-09T08:21:00.447Z,861.48
2023-02-09T08:22:00.445Z,861.49
2023-02-09T08:23:00.431Z,861.52
2023-02-09T08:24:00.434Z,861.51
2023-02-09T08:25:00.445Z,861.53
2023-02-09T08:26:00.392Z,861.52
2023-02-09T08:27:00.389Z,861.55
2023-02-09T08:28:00.405Z,861.48
2023-02-09T08:29:00.449Z,861.48
2023-02-09T08:30:00.368Z,861.47
2023-02-09T08:31:00.460Z,861.47
2023-02-09T08:32:00.439Z,861.50
2023-02-09T08:33:00.322Z,861.47
2023-02-09T08:34:00.325Z,861.43
2023-02-09T08:35:00.309Z,861.41
2023-02-09T08:36:00.296Z,861.42
2023-02-09T08:37:00.298Z,861.42
2023-02-09T08:38:00.270Z,861.40
2023-02-09T08:39:00.267Z,861.38
2023-02-09T08:40:00.271Z,861.40
2023-02-09T08:41:00.238Z,861.40
2023-02-09T08:42:00.334Z,861.42
2023-02-09T08:43:00.220Z,861.38
2023-02-09T08:44:00.207Z,861.40
2023-02-09T08:45:00.223Z,861.42
2023-02-09T08:46:00.393Z,861.35
2023-02-09T08:47:00.399Z,861.35
2023-02-09T08:48:00.175Z,861.39
2023-02-09T08:49:00.163Z,861.41
2023-02-09T08:50:00.169Z,861.46
2023-02-09T08:51:00.138Z,861.46
2023-02-09T08:52:00.141Z,861.51
2023-02-09T08:53:00.156Z,861.49
2023-02-09T08:54:00.137Z,861.47
2023-02-09T08:55:00.153Z,861.44
2023-02-09T08:56:00.139Z,861.40
2023-02-09T08:57:00.113Z,861.39
2023-02-09T08:58:00.103Z,861.37
2023-02-09T08:59:00.055Z,861.37
2023-02-09T09:00:00.055Z,861.34
2023-02-09T09:01:00.168Z,861.34
2023-02-09T09:02:00.033Z,861.37
2023-02-09T09:03:00.028Z,861.37
2023-02-09T09:04:00.121Z,861.36
2023-02-09T09:04:59.999Z,861.41
2023-02-09T09:05:59.984Z,861.33
2023-02-09T09:06:59.969Z,861.39
2023-02-09T09:07:59.952Z,861.33
2023-02-09T09:09:00.040Z,861.32
2023-02-09T09:09:59.961Z,861.30
2023-02-09T09:10:59.922Z,861.30
2023-02-09T09:11:59.928Z,861.33
2023-02-09T09:12:59.905Z,861.34
2023-02-09T09:13:59.907Z,861.39
2023-02-09T09:14:59.901Z,861.38
2023-02-09T09:15:59.897Z,861.35
2023-02-09T09:16:59.965Z,861.39
2023-02-09T09:17:59.846Z,861.40
2023-02-09T09:18:59.853Z,861.40
2023-02-09T09:19:59.826Z,861.40
2023-02-09T09:20:59.827Z,861.35
2023-02-09T09:21:59.829Z,861.35
2023-02-09T09:22:59.797Z,861.31
2023-02-09T09:23:59.785Z,861.32
2023-02-09T09:24:59.780Z,861.33
2023-02-09T09:25:59.778Z,861.34
2023-02-09T09:26:59.757Z,861.33
2023-02-09T09:27:59.793Z,861.33
2023-02-09T09:28:59.740Z,861.37
2023-02-09T09:29:59.724Z,861.37
2023-02-09T09:30:59.854Z,861.36
2023-02-09T09:31:59.777Z,861.40
2023-02-09T09:32:59.723Z,861.38
2023-02-09T09:33:59.677Z,861.38
2023-02-09T09:34:59.684Z,861.40
2023-02-09T09:35:59.677Z,861.40
2023-02-09T09:36:59.649Z,861.40
2023-02-09T09:37:59.637Z,861.38
2023-02-09T09:38:59.637Z,861.41
2023-02-09T09:39:59.613Z,861.44
2023-02-09T09:40:59.625Z,861.44
2023-02-09T09:41:59.640Z,861.45
2023-02-09T09:42:59.599Z,861.49
2023-02-09T09:43:59.593Z,861.48
2023-02-09T09:44:59.566Z,861.49
2023-02-09T09:45:59.573Z,861.41
2023-02-09T09:46:59.547Z,861.42
2023-02-09T09:47:59.540Z,861.43
2023-02-09T09:48:59.526Z,861.50
2023-02-09T09:49:59.511Z,861.54
2023-02-09T09:50:59.516Z,861.46
2023-02-09T09:51:59.490Z,861.53
2023-02-09T09:52:59.484Z,861.54
2023-02-09T09:53:59.480Z,861.57
2023-02-09T09:54:59.457Z,861.56
2023-02-09T09:55:59.469Z,861.52
2023-02-09T09:56:59.431Z,861.54
2023-02-09T09:57:59.423Z,861.52
2023-02-09T09:58:59.437Z,861.51
2023-02-09T09:59:59.447Z,861.54
2023-02-09T10:00:59.438Z,861.55
2023-02-09T10:01:59.380Z,861.51
2023-02-09T10:02:59.370Z,861.56
2023-02-09T10:03:59.371Z,861.52
2023-02-09T10:04:59.436Z,861.50
2023-02-09T10:05:59.346Z,861.53
2023-02-09T10:06:59.322Z,861.52
2023-02-09T10:07:59.317Z,861.56
2023-02-09T10:08:59.312Z,861.57
2023-02-09T10:09:59.293Z,861.56
2023-02-09T10:10:59.288Z,861.56
2023-02-09T10:11:59.273Z,861.58
2023-02-09T10:12:59.258Z,861.60
2023-02-09T10:13:59.253Z,861.56
2023-02-09T10:14:59.254Z,861.59
2023-02-09T10:15:59.257Z,861.58
2023-02-09T10:16:59.380Z,861.59
2023-02-09T10:17:59.219Z,861.61
2023-02-09T10:18:59.194Z,861.59
2023-02-09T10:19:59.188Z,861.58
2023-02-09T10:20:59.184Z,861.63
2023-02-09T10:21:59.182Z,861.63
2023-02-09T10:22:59.155Z,861.63
2023-02-09T10:23:59.195Z,861.57
2023-02-09T10:24:59.145Z,861.60
2023-02-09T10:25:59.128Z,861.56
2023-02-09T10:26:59.124Z,861.55
2023-02-09T10:27:59.108Z,861.55
2023-02-09T10:28:59.091Z,861.56
2023-02-09T10:29:59.088Z,861.57
2023-02-09T10:30:59.198Z,861.60
2023-02-09T10:31:59.145Z,861.54
2023-02-09T10:32:59.063Z,861.55
2023-02-09T10:33:59.062Z,861.54
2023-02-09T10:34:59.044Z,861.55
2023-02-09T10:35:59.017Z,861.51
2023-02-09T10:36:59.001Z,861.48
2023-02-09T10:37:58.998Z,861.51
2023-02-09T10:38:58.996Z,861.52
2023-02-09T10:39:58.986Z,861.53
2023-02-09T10:40:58.958Z,861.51
2023-02-09T10:41:58.957Z,861.49
2023-02-09T10:42:58.939Z,861.50
2023-02-09T10:43:58.932Z,861.50
2023-02-09T10:44:58.933Z,861.48
2023-02-09T10:45:58.950Z,861.49
2023-02-09T10:46:58.895Z,861.52
2023-02-09T10:47:58.912Z,861.53
2023-02-09T10:48:58.876Z,861.52
2023-02-09T10:49:58.868Z,861.52
2023-02-09T10:50:58.865Z,861.53
2023-02-09T10:51:58.845Z,861.47
2023-02-09T10:52:58.834Z,861.48
2023-02-09T10:53:58.822Z,861.48
2023-02-09T10:54:58.812Z,861.45
2023-02-09T10:55:58.824Z,861.47
2023-02-09T10:57:00.022Z,861.45
2023-02-09T10:57:58.782Z,861.47
2023-02-09T10:58:58.768Z,861.42
2023-02-09T10:59:58.761Z,861.46
2023-02-09T11:00:58.762Z,861.43
2023-02-09T11:01:58.741Z,861.41
2023-02-09T11:02:58.731Z,861.43
2023-02-09T11:03:58.785Z,861.44
2023-02-09T11:04:58.710Z,861.41
2023-02-09T11:05:58.695Z,861.39
2023-02-09T11:06:58.707Z,861.42
2023-02-09T11:07:58.686Z,861.36
2023-02-09T11:08:58.677Z,861.40
2023-02-09T11:09:58.662Z,861.34
2023-02-09T11:10:58.648Z,861.35
2023-02-09T11:11:58.635Z,861.33
2023-02-09T11:12:58.749Z,861.30
2023-02-09T11:13:58.623Z,861.33
2023-02-09T11:14:58.612Z,861.30
2023-02-09T11:15:58.674Z,861.36
2023-02-09T11:16:58.593Z,861.22
2023-02-09T11:17:58.577Z,861.21
2023-02-09T11:18:58.594Z,861.21
2023-02-09T11:19:58.579Z,861.23
2023-02-09T11:20:58.541Z,861.27
2023-02-09T11:21:58.530Z,861.25
2023-02-09T11:22:58.522Z,861.23
2023-02-09T11:23:58.513Z,861.21
2023-02-09T11:24:58.516Z,861.24
2023-02-09T11:25:58.500Z,861.26
2023-02-09T11:26:58.522Z,861.22
2023-02-09T11:27:58.518Z,861.21
2023-02-09T11:28:58.460Z,861.18
2023-02-09T11:29:58.445Z,861.24
2023-02-09T11:30:58.623Z,861.22
2023-02-09T11:31:58.527Z,861.24
2023-02-09T11:32:58.426Z,861.24
2023-02-09T11:33:58.425Z,861.27
2023-02-09T11:34:58.394Z,861.29
2023-02-09T11:35:58.399Z,861.28
2023-02-09T11:36:58.397Z,861.27
2023-02-09T11:37:58.357Z,861.35
2023-02-09T11:38:58.370Z,861.30
2023-02-09T11:39:58.336Z,861.29
2023-02-09T11:40:58.334Z,861.18
2023-02-09T11:41:58.320Z,861.22
2023-02-09T11:42:58.306Z,861.24
2023-02-09T11:43:58.304Z,861.20
2023-02-09T11:44:58.293Z,861.22
2023-02-09T11:45:58.338Z,861.20
2023-02-09T11:46:58.268Z,861.18
2023-02-09T11:47:58.323Z,861.17
2023-02-09T11:48:58.256Z,861.17
2023-02-09T11:49:58.338Z,861.14
2023-02-09T11:50:58.224Z,861.13
2023-02-09T11:51:58.227Z,861.14
2023-02-09T11:52:58.198Z,861.09
2023-02-09T11:53:58.197Z,861.11
2023-02-09T11:54:58.178Z,861.14
2023-02-09T11:55:58.168Z,861.08
2023-02-09T11:56:58.157Z,861.08
2023-02-09T11:57:58.142Z,861.09
2023-02-09T11:58:58.252Z,861.05
2023-02-09T11:59:58.124Z,861.10
2023-02-09T12:01:13.388Z,861.09
2023-02-09T12:01:59.093Z,861.10
2023-02-09T12:02:58.147Z,861.12
2023-02-09T12:03:58.077Z,861.09
2023-02-09T12:04:58.075Z,861.05
2023-02-09T12:05:58.054Z,861.05
2023-02-09T12:06:58.087Z,861.05
2023-02-09T12:07:58.061Z,861.06
2023-02-09T12:08:58.029Z,861.01
2023-02-09T12:09:58.007Z,861.01
2023-02-09T12:10:58.000Z,861.04
2023-02-09T12:11:57.983Z,861.01
2023-02-09T12:12:57.982Z,860.99
2023-02-09T12:13:57.985Z,860.97
2023-02-09T12:14:57.954Z,860.97
2023-02-09T12:15:57.986Z,860.98
2023-02-09T12:16:57.933Z,861.00
2023-02-09T12:17:57.932Z,860.94
2023-02-09T12:18:57.913Z,860.96
2023-02-09T12:19:57.920Z,860.93
2023-02-09T12:20:57.895Z,860.93
2023-02-09T12:21:57.874Z,860.90
2023-02-09T12:22:57.877Z,860.91
2023-02-09T12:23:57.885Z,860.90
2023-02-09T12:24:57.854Z,860.87
2023-02-09T12:25:57.852Z,860.92
2023-02-09T12:26:57.829Z,860.95
2023-02-09T12:27:57.842Z,860.85